createdAt,value
2018-09-09T00:01:39.733Z,5.63
2018-09-09T00:04:08.315Z,7.63
2018-09-09T00:06:36.893Z,12.13
2018-09-09T00:09:06.639Z,6.27
2018-09-09T00:11:35.212Z,5.67
2018-09-09T00:14:03.811Z,5.60
2018-09-09T00:16:32.388Z,6.20
2018-09-09T00:19:00.934Z,7.37
2018-09-09T00:21:29.506Z,5.83
2018-09-09T00:23:58.074Z,6.53
2018-09-09T00:26:26.664Z,6.13
2018-09-09T00:28:55.242Z,10.23
2018-09-09T00:31:23.822Z,5.27
2018-09-09T00:33:52.395Z,5.30
2018-09-09T00:36:20.977Z,6.00
2018-09-09T00:38:49.562Z,5.40
2018-09-09T00:41:18.133Z,6.80
2018-09-09T00:43:46.706Z,11.60
2018-09-09T00:46:15.294Z,5.73
2018-09-09T00:48:43.850Z,6.83
2018-09-09T00:51:17.613Z,5.90
2018-09-09T00:53:48.047Z,6.27
2018-09-09T00:56:17.611Z,5.67
2018-09-09T00:58:46.176Z,7.93
2018-09-09T01:01:15.661Z,6.90
2018-09-09T01:03:45.128Z,18.67
2018-09-09T01:06:13.715Z,6.10
2018-09-09T01:08:42.307Z,8.00
2018-09-09T01:11:11.470Z,6.20
2018-09-09T01:13:40.021Z,5.90
2018-09-09T01:16:08.859Z,5.73
2018-09-09T01:18:37.470Z,5.40
2018-09-09T01:21:06.097Z,7.77
2018-09-09T01:23:34.650Z,9.20
2018-09-09T01:26:03.226Z,5.93
2018-09-09T01:28:31.813Z,9.70
2018-09-09T01:31:00.418Z,7.57
2018-09-09T01:33:28.975Z,6.10
2018-09-09T01:35:57.552Z,6.90
2018-09-09T01:38:26.109Z,9.87
2018-09-09T01:40:54.702Z,6.27
2018-09-09T01:43:23.261Z,5.93
2018-09-09T01:45:51.861Z,9.30
2018-09-09T01:48:20.407Z,7.33
2018-09-09T01:50:48.989Z,6.30
2018-09-09T01:53:17.561Z,5.53
2018-09-09T01:55:46.168Z,6.20
2018-09-09T01:58:14.737Z,8.63
2018-09-09T02:00:43.352Z,6.93
2018-09-09T02:03:11.945Z,5.97
2018-09-09T02:05:40.508Z,8.20
2018-09-09T02:08:09.096Z,6.03
2018-09-09T02:10:37.679Z,5.90
2018-09-09T02:13:06.262Z,8.93
2018-09-09T02:15:34.839Z,5.30
2018-09-09T02:18:03.421Z,5.97
2018-09-09T02:20:31.989Z,6.80
2018-09-09T02:23:00.556Z,5.87
2018-09-09T02:25:29.124Z,7.97
2018-09-09T02:27:57.745Z,6.10
2018-09-09T02:30:26.344Z,7.87
2018-09-09T02:32:54.935Z,7.53
2018-09-09T02:35:23.509Z,10.90
2018-09-09T02:37:52.095Z,6.33
2018-09-09T02:40:20.668Z,6.23
2018-09-09T02:42:49.258Z,8.87
2018-09-09T02:45:17.822Z,6.27
2018-09-09T02:47:46.397Z,7.93
2018-09-09T02:50:14.958Z,6.00
2018-09-09T02:52:43.570Z,6.20
2018-09-09T02:55:12.171Z,6.17
2018-09-09T02:57:40.770Z,5.80
2018-09-09T03:00:09.346Z,5.67
2018-09-09T03:02:37.942Z,5.87
2018-09-09T03:05:06.697Z,6.60
2018-09-09T03:07:35.316Z,7.83
2018-09-09T03:10:03.901Z,6.40
2018-09-09T03:12:32.496Z,6.57
2018-09-09T03:15:01.049Z,5.90
2018-09-09T03:17:29.653Z,6.37
2018-09-09T03:19:58.259Z,6.57
2018-09-09T03:22:26.902Z,8.23
2018-09-09T03:24:55.493Z,7.23
2018-09-09T03:27:24.106Z,6.73
2018-09-09T03:29:52.669Z,6.20
2018-09-09T03:32:21.280Z,6.60
2018-09-09T03:34:49.861Z,6.10
2018-09-09T03:37:18.453Z,6.30
2018-09-09T03:39:47.027Z,5.80
2018-09-09T03:42:15.620Z,7.10
2018-09-09T03:44:44.187Z,7.40
2018-09-09T03:47:12.766Z,8.60
2018-09-09T03:49:41.359Z,9.27
2018-09-09T03:52:09.962Z,9.77
2018-09-09T03:54:38.529Z,7.30
2018-09-09T03:57:07.122Z,6.30
2018-09-09T03:59:35.763Z,6.40
2018-09-09T04:02:04.391Z,6.53
2018-09-09T04:04:33.014Z,7.30
2018-09-09T04:07:01.570Z,7.77
2018-09-09T04:09:30.170Z,5.80
2018-09-09T04:11:58.748Z,7.13
2018-09-09T04:14:27.355Z,11.03
2018-09-09T04:16:55.944Z,8.30
2018-09-09T04:19:24.549Z,6.47
2018-09-09T04:21:53.491Z,7.23
2018-09-09T04:24:23.334Z,8.57
2018-09-09T04:26:51.926Z,6.63
2018-09-09T04:29:20.506Z,7.10
2018-09-09T04:31:49.089Z,8.50
2018-09-09T04:34:17.680Z,7.00
2018-09-09T04:36:46.254Z,6.50
2018-09-09T04:39:15.156Z,7.17
2018-09-09T04:41:43.751Z,7.00
2018-09-09T04:44:13.587Z,15.83
2018-09-09T04:46:42.195Z,6.63
2018-09-09T04:49:11.001Z,8.33
2018-09-09T04:51:39.796Z,10.43
2018-09-09T04:54:08.415Z,6.20
2018-09-09T04:56:37.008Z,5.53
2018-09-09T04:59:05.704Z,6.20
2018-09-09T05:01:34.302Z,6.47
2018-09-09T05:04:02.915Z,8.80
2018-09-09T05:06:31.498Z,6.50
2018-09-09T05:09:00.109Z,6.47
2018-09-09T05:11:28.693Z,6.13
2018-09-09T05:13:57.277Z,8.90
2018-09-09T05:16:25.849Z,6.27
2018-09-09T05:18:54.461Z,6.13
2018-09-09T05:21:23.046Z,6.40
2018-09-09T05:23:51.649Z,7.53
2018-09-09T05:26:20.233Z,7.10
2018-09-09T05:28:48.821Z,5.90
2018-09-09T05:31:17.459Z,11.03
2018-09-09T05:33:46.056Z,10.60
2018-09-09T05:36:14.630Z,6.77
2018-09-09T05:38:43.228Z,7.40
2018-09-09T05:41:11.804Z,6.90
2018-09-09T05:43:40.391Z,6.63
2018-09-09T05:46:08.956Z,8.47
2018-09-09T05:48:37.553Z,6.60
2018-09-09T05:51:07.042Z,8.00
2018-09-09T05:53:35.624Z,10.37
2018-09-09T05:56:04.196Z,8.23
2018-09-09T05:58:32.788Z,6.90
2018-09-09T06:01:01.471Z,7.07
2018-09-09T06:03:30.075Z,7.20
2018-09-09T06:05:58.664Z,6.20
2018-09-09T06:08:27.266Z,11.17
2018-09-09T06:10:56.209Z,6.43
2018-09-09T06:13:26.151Z,5.97
2018-09-09T06:15:54.770Z,5.73
2018-09-09T06:18:23.337Z,5.63
2018-09-09T06:20:51.940Z,5.50
2018-09-09T06:23:20.520Z,5.70
2018-09-09T06:25:49.113Z,5.83
2018-09-09T06:28:17.758Z,5.20
2018-09-09T06:30:46.312Z,5.30
2018-09-09T06:33:14.875Z,6.63
2018-09-09T06:35:43.465Z,8.87
2018-09-09T06:38:12.077Z,4.80
2018-09-09T06:40:40.668Z,5.20
2018-09-09T06:43:09.339Z,6.10
2018-09-09T06:45:37.961Z,8.70
2018-09-09T06:48:06.546Z,5.80
2018-09-09T06:50:35.133Z,9.90
2018-09-09T06:53:03.710Z,4.83
2018-09-09T06:55:32.352Z,4.83
2018-09-09T06:58:00.929Z,4.97
2018-09-09T07:00:29.543Z,6.60
2018-09-09T07:02:58.115Z,6.17
2018-09-09T07:05:26.704Z,5.30
2018-09-09T07:07:55.313Z,5.20
2018-09-09T07:10:23.904Z,5.20
2018-09-09T07:12:52.488Z,6.33
2018-09-09T07:15:21.107Z,4.40
2018-09-09T07:17:49.681Z,8.10
2018-09-09T07:20:18.273Z,5.57
2018-09-09T07:22:46.893Z,6.50
2018-09-09T07:25:15.466Z,4.77
2018-09-09T07:27:44.049Z,4.27
2018-09-09T07:30:12.640Z,5.73
2018-09-09T07:32:41.214Z,7.07
2018-09-09T07:35:09.813Z,4.97
2018-09-09T07:37:38.384Z,9.47
2018-09-09T07:40:06.983Z,8.13
2018-09-09T07:42:35.575Z,5.60
2018-09-09T07:45:04.211Z,4.27
2018-09-09T07:47:32.830Z,6.20
2018-09-09T07:50:01.448Z,6.53
2018-09-09T07:52:30.033Z,5.40
2018-09-09T07:54:58.627Z,6.00
2018-09-09T07:57:27.228Z,4.10
2018-09-09T07:59:55.812Z,5.20
2018-09-09T08:02:24.382Z,6.40
2018-09-09T08:04:53.014Z,6.77
2018-09-09T08:07:21.603Z,4.90
2018-09-09T08:09:50.229Z,8.70
2018-09-09T08:12:18.794Z,4.90
2018-09-09T08:14:47.362Z,9.70
2018-09-09T08:17:15.981Z,6.10
2018-09-09T08:19:44.555Z,6.53
2018-09-09T08:22:13.158Z,10.50
2018-09-09T08:24:41.727Z,8.73
2018-09-09T08:27:10.319Z,10.20
2018-09-09T08:29:38.971Z,5.77
2018-09-09T08:32:07.558Z,7.90
2018-09-09T08:34:36.285Z,6.40
2018-09-09T08:37:05.091Z,7.57
2018-09-09T08:39:33.686Z,7.30
2018-09-09T08:42:02.295Z,6.93
2018-09-09T08:44:30.873Z,5.87
2018-09-09T08:46:59.474Z,5.10
2018-09-09T08:49:28.061Z,5.27
2018-09-09T08:51:56.784Z,5.23
2018-09-09T08:54:25.265Z,5.83
2018-09-09T08:56:53.874Z,6.63
2018-09-09T08:59:22.503Z,4.93
2018-09-09T09:01:51.090Z,4.50
2018-09-09T09:04:19.653Z,5.10
2018-09-09T09:06:48.259Z,6.37
2018-09-09T09:09:16.855Z,5.30
2018-09-09T09:11:45.458Z,4.83
2018-09-09T09:14:14.048Z,6.00
2018-09-09T09:16:42.660Z,4.30
2018-09-09T09:19:11.232Z,6.87
2018-09-09T09:21:39.832Z,8.33
2018-09-09T09:24:08.397Z,6.73
2018-09-09T09:26:36.992Z,4.07
2018-09-09T09:29:05.618Z,7.00
2018-09-09T09:31:34.221Z,4.50
2018-09-09T09:34:02.806Z,7.70
2018-09-09T09:36:31.395Z,5.33
2018-09-09T09:38:59.966Z,4.03
2018-09-09T09:41:28.558Z,4.80
2018-09-09T09:43:57.141Z,4.70
2018-09-09T09:46:25.754Z,4.30
2018-09-09T09:48:54.325Z,6.03
2018-09-09T09:51:22.926Z,5.40
2018-09-09T09:53:51.500Z,3.80
2018-09-09T09:56:20.107Z,7.30
2018-09-09T09:58:48.684Z,4.60
2018-09-09T10:01:17.280Z,6.83
2018-09-09T10:03:45.869Z,3.87
2018-09-09T10:06:14.512Z,2.83
2018-09-09T10:08:43.096Z,8.93
2018-09-09T10:11:11.678Z,3.43
2018-09-09T10:13:40.273Z,2.40
2018-09-09T10:16:08.855Z,3.27
2018-09-09T10:18:37.453Z,3.40
2018-09-09T10:21:06.040Z,3.20
2018-09-09T10:23:34.620Z,4.23
2018-09-09T10:26:03.199Z,2.90
2018-09-09T10:28:31.790Z,3.90
2018-09-09T10:31:00.367Z,3.60
2018-09-09T10:33:28.949Z,4.93
2018-09-09T10:35:57.521Z,2.53
2018-09-09T10:38:26.108Z,2.40
2018-09-09T10:40:54.697Z,1.90
2018-09-09T10:43:23.299Z,2.40
2018-09-09T10:45:51.862Z,2.00
2018-09-09T10:48:20.455Z,2.00
2018-09-09T10:50:49.023Z,1.60
2018-09-09T10:53:17.671Z,2.47
2018-09-09T10:55:46.236Z,2.30
2018-09-09T10:58:14.829Z,2.33
2018-09-09T11:00:43.399Z,2.10
2018-09-09T11:03:11.986Z,1.60
2018-09-09T11:05:40.798Z,2.50
2018-09-09T11:08:13.809Z,3.37
2018-09-09T11:10:42.397Z,1.70
2018-09-09T11:13:11.012Z,3.20
2018-09-09T11:15:39.622Z,2.53
2018-09-09T11:18:08.318Z,3.30
2018-09-09T11:20:36.887Z,2.07
2018-09-09T11:23:05.481Z,1.90
2018-09-09T11:25:34.048Z,1.70
2018-09-09T11:28:02.645Z,1.80
2018-09-09T11:30:31.281Z,1.60
2018-09-09T11:32:59.863Z,1.70
2018-09-09T11:35:28.630Z,2.33
2018-09-09T11:37:57.565Z,1.33
2018-09-09T11:40:26.651Z,2.27
2018-09-09T11:42:55.323Z,1.40
2018-09-09T11:45:23.913Z,1.50
2018-09-09T11:47:52.560Z,1.93
2018-09-09T11:50:21.145Z,2.67
2018-09-09T11:52:49.727Z,3.70
2018-09-09T11:55:18.304Z,2.40
2018-09-09T11:57:46.932Z,4.00
2018-09-09T12:00:15.518Z,3.67
2018-09-09T12:02:44.154Z,1.50
2018-09-09T12:05:12.706Z,2.20
2018-09-09T12:07:41.292Z,2.50
2018-09-09T12:10:09.859Z,2.03
2018-09-09T12:12:38.456Z,1.50
2018-09-09T12:15:07.067Z,1.30
2018-09-09T12:17:35.629Z,2.17
2018-09-09T12:20:04.262Z,2.30
2018-09-09T12:22:32.823Z,2.30
2018-09-09T12:25:01.410Z,1.73
2018-09-09T12:27:30.009Z,1.37
2018-09-09T12:29:58.629Z,1.20
2018-09-09T12:32:27.208Z,3.70
2018-09-09T12:34:55.788Z,1.33
2018-09-09T12:37:24.356Z,1.33
2018-09-09T12:39:52.950Z,2.63
2018-09-09T12:42:22.313Z,1.57
2018-09-09T12:44:56.141Z,1.43
2018-09-09T12:47:30.131Z,1.67
2018-09-09T12:49:58.711Z,1.10
2018-09-09T12:52:27.290Z,2.87
2018-09-09T12:54:55.924Z,1.20
2018-09-09T12:57:24.469Z,1.10
2018-09-09T12:59:53.118Z,1.33
2018-09-09T13:02:21.693Z,2.83
2018-09-09T13:04:50.262Z,0.90
2018-09-09T13:07:18.868Z,1.20
2018-09-09T13:09:47.461Z,1.20
2018-09-09T13:12:16.059Z,2.87
2018-09-09T13:14:44.660Z,1.70
2018-09-09T13:17:13.220Z,3.70
2018-09-09T13:19:41.809Z,1.30
2018-09-09T13:22:10.425Z,2.03
2018-09-09T13:24:39.027Z,1.37
2018-09-09T13:27:07.635Z,1.37
2018-09-09T13:29:36.208Z,1.23
2018-09-09T13:32:04.789Z,1.17
2018-09-09T13:34:33.361Z,1.10
2018-09-09T13:37:01.917Z,1.53
2018-09-09T13:39:30.518Z,1.33
2018-09-09T13:41:59.078Z,2.47
2018-09-09T13:44:27.665Z,1.10
2018-09-09T13:46:56.229Z,2.33
2018-09-09T13:49:24.825Z,2.03
2018-09-09T13:51:53.376Z,1.00
2018-09-09T13:54:21.960Z,1.43
2018-09-09T13:56:50.533Z,1.30
2018-09-09T13:59:19.107Z,2.63
2018-09-09T14:01:47.660Z,3.87
2018-09-09T14:04:16.236Z,1.40
2018-09-09T14:06:44.801Z,1.27
2018-09-09T14:09:13.378Z,2.40
2018-09-09T14:11:41.974Z,1.43
2018-09-09T14:14:10.521Z,1.30
2018-09-09T14:16:39.094Z,1.93
2018-09-09T14:19:07.654Z,1.63
2018-09-09T14:21:36.231Z,1.43
2018-09-09T14:24:04.804Z,2.77
2018-09-09T14:26:33.386Z,2.17
2018-09-09T14:29:01.959Z,3.53
2018-09-09T14:31:30.536Z,1.50
2018-09-09T14:33:59.094Z,2.10
2018-09-09T14:36:27.663Z,2.20
2018-09-09T14:38:56.204Z,2.03
2018-09-09T14:41:24.781Z,2.07
2018-09-09T14:43:53.368Z,1.50
2018-09-09T14:46:21.957Z,3.53
2018-09-09T14:48:50.520Z,5.53
2018-09-09T14:51:19.097Z,1.37
2018-09-09T14:53:47.664Z,1.37
2018-09-09T14:56:16.256Z,1.50
2018-09-09T14:58:44.825Z,1.87
2018-09-09T15:01:13.443Z,2.13
2018-09-09T15:03:42.018Z,2.00
2018-09-09T15:06:10.581Z,2.77
2018-09-09T15:08:39.154Z,1.80
2018-09-09T15:11:07.740Z,3.03
2018-09-09T15:13:36.289Z,1.30
2018-09-09T15:16:04.867Z,1.40
2018-09-09T15:18:33.467Z,2.70
2018-09-09T15:21:02.035Z,1.40
2018-09-09T15:23:30.619Z,3.70
2018-09-09T15:25:59.153Z,1.67
2018-09-09T15:28:27.773Z,1.60
2018-09-09T15:30:56.330Z,1.40
2018-09-09T15:33:24.916Z,1.67
2018-09-09T15:35:53.488Z,1.60
2018-09-09T15:38:22.071Z,1.67
2018-09-09T15:40:50.740Z,1.63
2018-09-09T15:43:19.337Z,2.30
2018-09-09T15:45:47.884Z,3.80
2018-09-09T15:48:16.614Z,1.80
2018-09-09T15:50:45.220Z,1.70
2018-09-09T15:53:13.825Z,1.70
2018-09-09T15:55:42.389Z,1.60
2018-09-09T15:58:11.030Z,1.90
2018-09-09T16:00:39.601Z,2.23
2018-09-09T16:03:08.190Z,1.83
2018-09-09T16:05:36.732Z,4.03
2018-09-09T16:08:05.356Z,1.93
2018-09-09T16:10:33.908Z,2.07
2018-09-09T16:13:02.494Z,1.50
2018-09-09T16:15:31.041Z,1.90
2018-09-09T16:17:59.852Z,2.30
2018-09-09T16:20:31.370Z,3.50
2018-09-09T16:23:00.133Z,1.80
2018-09-09T16:25:29.098Z,1.70
2018-09-09T16:27:57.705Z,2.17
2018-09-09T16:30:26.297Z,1.67
2018-09-09T16:32:54.885Z,2.60
2018-09-09T16:35:23.454Z,4.23
2018-09-09T16:37:52.022Z,1.87
2018-09-09T16:40:20.613Z,1.77
2018-09-09T16:42:49.327Z,2.00
2018-09-09T16:45:17.952Z,2.37
2018-09-09T16:47:46.535Z,2.20
2018-09-09T16:50:15.138Z,1.80
2018-09-09T16:52:43.781Z,1.90
2018-09-09T16:55:12.354Z,2.23
2018-09-09T16:57:40.954Z,2.60
2018-09-09T17:00:09.580Z,3.20
2018-09-09T17:02:38.173Z,2.10
2018-09-09T17:05:06.892Z,3.00
2018-09-09T17:07:35.489Z,2.43
2018-09-09T17:10:04.105Z,2.10
2018-09-09T17:12:32.689Z,2.47
2018-09-09T17:15:01.333Z,2.60
2018-09-09T17:17:29.927Z,2.47
2018-09-09T17:19:58.557Z,2.87
2018-09-09T17:22:27.121Z,4.33
2018-09-09T17:24:55.739Z,2.47
2018-09-09T17:27:24.360Z,2.47
2018-09-09T17:29:52.982Z,2.47
2018-09-09T17:32:21.563Z,1.97
2018-09-09T17:34:50.206Z,2.70
2018-09-09T17:37:18.794Z,2.67
2018-09-09T17:39:47.390Z,2.50
2018-09-09T17:42:15.959Z,2.67
2018-09-09T17:44:44.563Z,2.57
2018-09-09T17:47:13.162Z,3.00
2018-09-09T17:49:41.757Z,4.77
2018-09-09T17:52:10.317Z,3.53
2018-09-09T17:54:38.926Z,5.90
2018-09-09T17:57:07.512Z,2.87
2018-09-09T17:59:36.085Z,2.97
2018-09-09T18:02:04.749Z,2.40
2018-09-09T18:04:33.368Z,2.60
2018-09-09T18:07:01.969Z,3.90
2018-09-09T18:09:30.548Z,4.57
2018-09-09T18:11:59.166Z,6.23
2018-09-09T18:14:27.741Z,2.83
2018-09-09T18:16:56.342Z,5.73
2018-09-09T18:19:24.941Z,3.80
2018-09-09T18:21:53.534Z,4.50
2018-09-09T18:24:22.107Z,2.63
2018-09-09T18:26:50.700Z,3.17
2018-09-09T18:29:19.334Z,2.77
2018-09-09T18:31:47.959Z,3.13
2018-09-09T18:34:16.544Z,3.13
2018-09-09T18:36:45.830Z,3.20
2018-09-09T18:39:14.405Z,8.30
2018-09-09T18:41:43.022Z,3.03
2018-09-09T18:44:11.619Z,4.10
2018-09-09T18:46:40.218Z,4.70
2018-09-09T18:49:08.817Z,4.73
2018-09-09T18:51:37.414Z,5.37
2018-09-09T18:54:05.986Z,5.00
2018-09-09T18:56:34.584Z,4.97
2018-09-09T18:59:03.282Z,5.10
2018-09-09T19:01:31.837Z,6.13
2018-09-09T19:04:00.401Z,7.87
2018-09-09T19:06:28.998Z,3.80
2018-09-09T19:08:57.599Z,4.13
2018-09-09T19:11:26.188Z,3.93
2018-09-09T19:13:54.802Z,4.70
2018-09-09T19:16:23.399Z,3.77
2018-09-09T19:18:51.968Z,3.90
2018-09-09T19:21:20.579Z,5.73
2018-09-09T19:23:49.219Z,3.90
2018-09-09T19:26:17.789Z,3.90
2018-09-09T19:28:46.457Z,4.20
2018-09-09T19:31:14.998Z,5.23
2018-09-09T19:33:43.570Z,3.70
2018-09-09T19:36:12.149Z,5.03
2018-09-09T19:38:40.727Z,4.37
2018-09-09T19:41:09.292Z,5.10
2018-09-09T19:43:37.862Z,4.33
2018-09-09T19:46:06.453Z,6.40
2018-09-09T19:48:35.073Z,3.97
2018-09-09T19:51:03.698Z,4.70
2018-09-09T19:53:32.301Z,7.93
2018-09-09T19:56:00.891Z,4.00
2018-09-09T19:58:29.499Z,7.07
2018-09-09T20:00:58.067Z,4.90
2018-09-09T20:03:26.656Z,9.20
2018-09-09T20:05:55.211Z,5.57
2018-09-09T20:08:23.842Z,6.87
2018-09-09T20:10:52.409Z,4.00
2018-09-09T20:13:20.989Z,4.83
2018-09-09T20:15:49.601Z,10.40
2018-09-09T20:18:18.134Z,4.27
2018-09-09T20:20:46.702Z,7.07
2018-09-09T20:23:15.319Z,4.80
2018-09-09T20:25:43.932Z,4.37
2018-09-09T20:28:12.514Z,4.70
2018-09-09T20:30:41.766Z,5.43
2018-09-09T20:33:10.328Z,4.97
2018-09-09T20:35:38.912Z,5.60
2018-09-09T20:38:07.481Z,4.83
2018-09-09T20:40:36.079Z,9.60
2018-09-09T20:43:04.662Z,5.20
2018-09-09T20:45:33.254Z,5.20
2018-09-09T20:48:01.833Z,9.60
2018-09-09T20:50:30.436Z,5.67
2018-09-09T20:52:59.001Z,6.17
2018-09-09T20:55:27.595Z,7.00
2018-09-09T20:57:56.166Z,5.27
2018-09-09T21:00:24.818Z,4.90
2018-09-09T21:02:53.376Z,9.77
2018-09-09T21:05:21.982Z,4.60
2018-09-09T21:07:50.555Z,5.97
2018-09-09T21:10:19.175Z,5.10
2018-09-09T21:12:47.764Z,16.93
2018-09-09T21:15:16.371Z,6.23
2018-09-09T21:17:44.937Z,5.90
2018-09-09T21:20:13.509Z,7.50
2018-09-09T21:22:42.115Z,5.67
2018-09-09T21:25:10.700Z,8.03
2018-09-09T21:27:39.346Z,6.80
2018-09-09T21:30:07.934Z,6.33
2018-09-09T21:32:36.521Z,6.40
2018-09-09T21:35:05.131Z,14.30
2018-09-09T21:37:33.698Z,4.67
2018-09-09T21:40:02.245Z,7.57
2018-09-09T21:42:30.821Z,9.40
2018-09-09T21:44:59.374Z,8.77
2018-09-09T21:47:27.980Z,10.67
2018-09-09T21:49:56.525Z,8.30
2018-09-09T21:52:25.191Z,6.63
2018-09-09T21:54:53.768Z,7.70
2018-09-09T21:57:22.358Z,6.90
2018-09-09T21:59:50.906Z,8.73
2018-09-09T22:02:19.494Z,6.00
2018-09-09T22:04:48.061Z,6.23
2018-09-09T22:07:16.634Z,6.20
2018-09-09T22:09:45.664Z,7.80
2018-09-09T22:12:14.313Z,7.47
2018-09-09T22:14:43.268Z,6.80
2018-09-09T22:17:12.205Z,8.60
2018-09-09T22:19:40.854Z,8.03
2018-09-09T22:22:09.475Z,5.93
2018-09-09T22:24:38.028Z,7.17
2018-09-09T22:27:06.684Z,17.23
2018-09-09T22:29:35.245Z,8.63
2018-09-09T22:32:03.820Z,10.13
2018-09-09T22:34:32.401Z,9.23
2018-09-09T22:37:00.984Z,13.00
2018-09-09T22:39:29.546Z,8.60
2018-09-09T22:41:58.092Z,6.27
2018-09-09T22:44:26.781Z,7.50
2018-09-09T22:46:55.332Z,8.13
2018-09-09T22:49:23.907Z,7.33
2018-09-09T22:51:52.531Z,9.50
2018-09-09T22:54:21.121Z,6.73
2018-09-09T22:56:49.694Z,6.60
2018-09-09T22:59:18.283Z,7.70
2018-09-09T23:01:46.859Z,9.43
2018-09-09T23:04:15.453Z,12.07
2018-09-09T23:06:44.032Z,9.03
2018-09-09T23:09:13.482Z,7.23
2018-09-09T23:11:42.070Z,7.20
2018-09-09T23:14:10.704Z,10.40
2018-09-09T23:16:39.278Z,17.07
2018-09-09T23:19:07.874Z,6.33
2018-09-09T23:21:36.450Z,11.63
2018-09-09T23:24:05.060Z,12.23
2018-09-09T23:26:33.620Z,7.63
2018-09-09T23:29:02.213Z,9.63
2018-09-09T23:31:30.789Z,11.67
2018-09-09T23:33:59.393Z,12.60
2018-09-09T23:36:28.045Z,9.00
2018-09-09T23:38:56.612Z,6.23
2018-09-09T23:41:25.206Z,7.60
2018-09-09T23:43:53.793Z,8.60
2018-09-09T23:46:22.398Z,6.50
2018-09-09T23:48:50.981Z,6.97
2018-09-09T23:51:19.556Z,9.87
2018-09-09T23:53:48.142Z,9.00
2018-09-09T23:56:16.748Z,6.57
2018-09-09T23:58:45.353Z,8.20
